createdAt,value
2018-10-16T00:00:11.120Z,72.62
2018-10-16T00:01:11.272Z,72.81
2018-10-16T00:02:11.407Z,72.53
2018-10-16T00:03:11.568Z,72.81
2018-10-16T00:04:11.700Z,72.33
2018-10-16T00:05:11.828Z,73.00
2018-10-16T00:06:11.967Z,72.62
2018-10-16T00:07:12.111Z,72.72
2018-10-16T00:08:12.335Z,73.10
2018-10-16T00:09:12.383Z,73.48
2018-10-16T00:10:12.524Z,73.00
2018-10-16T00:11:12.660Z,72.62
2018-10-16T00:12:12.872Z,72.85
2018-10-16T00:13:12.966Z,72.66
2018-10-16T00:14:13.097Z,72.91
2018-10-16T00:15:13.236Z,73.00
2018-10-16T00:16:13.423Z,73.00
2018-10-16T00:17:13.525Z,72.24
2018-10-16T00:18:13.657Z,72.47
2018-10-16T00:19:13.791Z,72.43
2018-10-16T00:20:13.978Z,72.33
2018-10-16T00:21:14.080Z,71.95
2018-10-16T00:22:14.214Z,71.67
2018-10-16T00:23:14.361Z,72.05
2018-10-16T00:24:14.521Z,72.33
2018-10-16T00:25:14.643Z,72.33
2018-10-16T00:26:14.792Z,71.57
2018-10-16T00:27:14.933Z,71.67
2018-10-16T00:28:15.080Z,72.43
2018-10-16T00:29:15.214Z,72.05
2018-10-16T00:30:15.351Z,72.33
2018-10-16T00:31:15.511Z,72.62
2018-10-16T00:32:15.643Z,73.00
2018-10-16T00:33:15.778Z,73.29
2018-10-16T00:34:15.915Z,73.39
2018-10-16T00:35:16.078Z,73.39
2018-10-16T00:36:16.218Z,73.19
2018-10-16T00:37:16.351Z,72.91
2018-10-16T00:38:17.318Z,72.72
2018-10-16T00:39:16.674Z,72.62
2018-10-16T00:40:16.814Z,73.00
2018-10-16T00:41:16.951Z,72.91
2018-10-16T00:42:17.102Z,72.72
2018-10-16T00:43:17.240Z,72.58
2018-10-16T00:44:17.372Z,72.58
2018-10-16T00:45:17.509Z,72.68
2018-10-16T00:46:17.677Z,72.68
2018-10-16T00:47:17.794Z,72.58
2018-10-16T00:48:17.933Z,72.68
2018-10-16T00:49:18.106Z,73.25
2018-10-16T00:50:18.247Z,73.54
2018-10-16T00:51:18.377Z,74.02
2018-10-16T00:52:18.541Z,74.11
2018-10-16T00:53:18.666Z,74.21
2018-10-16T00:54:18.805Z,74.40
2018-10-16T00:55:18.950Z,74.21
2018-10-16T00:56:19.087Z,74.24
2018-10-16T00:57:19.221Z,74.21
2018-10-16T00:58:19.357Z,74.40
2018-10-16T00:59:19.948Z,74.93
2018-10-16T01:00:19.650Z,74.40
2018-10-16T01:01:19.790Z,73.88
2018-10-16T01:02:19.951Z,73.98
2018-10-16T01:03:20.077Z,74.93
2018-10-16T01:04:20.951Z,75.32
2018-10-16T01:05:20.408Z,75.85
2018-10-16T01:06:20.519Z,75.79
2018-10-16T01:07:20.656Z,76.46
2018-10-16T01:08:20.790Z,76.27
2018-10-16T01:09:20.967Z,76.27
2018-10-16T01:10:21.096Z,75.60
2018-10-16T01:11:21.235Z,75.70
2018-10-16T01:12:21.373Z,75.42
2018-10-16T01:13:21.543Z,75.42
2018-10-16T01:14:21.671Z,75.42
2018-10-16T01:15:21.805Z,76.08
2018-10-16T01:16:21.941Z,75.79
2018-10-16T01:17:22.102Z,75.70
2018-10-16T01:18:22.238Z,75.60
2018-10-16T01:19:22.368Z,75.13
2018-10-16T01:20:22.509Z,75.13
2018-10-16T01:21:22.672Z,74.93
2018-10-16T01:22:22.799Z,75.13
2018-10-16T01:23:22.934Z,75.32
2018-10-16T01:24:23.090Z,75.51
2018-10-16T01:25:23.230Z,75.32
2018-10-16T01:26:23.365Z,75.60
2018-10-16T01:27:23.494Z,74.93
2018-10-16T01:28:23.637Z,74.74
2018-10-16T01:29:23.762Z,75.16
2018-10-16T01:30:23.897Z,74.88
2018-10-16T01:31:24.100Z,74.69
2018-10-16T01:32:24.109Z,74.37
2018-10-16T01:33:24.247Z,74.02
2018-10-16T01:34:24.402Z,73.79
2018-10-16T01:35:24.531Z,73.50
2018-10-16T01:36:24.664Z,73.25
2018-10-16T01:37:24.802Z,72.97
2018-10-16T01:38:24.965Z,73.32
2018-10-16T01:39:25.098Z,73.41
2018-10-16T01:40:25.238Z,73.32
2018-10-16T01:41:25.369Z,73.50
2018-10-16T01:42:25.519Z,74.08
2018-10-16T01:43:25.661Z,74.17
2018-10-16T01:44:25.797Z,74.08
2018-10-16T01:45:25.949Z,73.98
2018-10-16T01:46:26.079Z,74.65
2018-10-16T01:47:26.212Z,74.93
2018-10-16T01:48:26.369Z,74.37
2018-10-16T01:49:26.503Z,74.37
2018-10-16T01:50:26.636Z,75.03
2018-10-16T01:51:26.803Z,74.93
2018-10-16T01:52:26.928Z,75.32
2018-10-16T01:53:27.061Z,75.60
2018-10-16T01:54:27.203Z,75.89
2018-10-16T01:55:27.334Z,75.79
2018-10-16T01:56:27.471Z,75.70
2018-10-16T01:57:27.603Z,75.51
2018-10-16T01:58:27.741Z,75.22
2018-10-16T01:59:27.890Z,75.13
2018-10-16T02:00:28.022Z,75.70
2018-10-16T02:01:28.161Z,75.42
2018-10-16T02:02:28.348Z,75.60
2018-10-16T02:03:28.458Z,75.95
2018-10-16T02:04:28.585Z,76.04
2018-10-16T02:05:28.728Z,76.23
2018-10-16T02:06:28.861Z,76.86
2018-10-16T02:07:28.998Z,77.15
2018-10-16T02:08:29.134Z,77.62
2018-10-16T02:09:29.283Z,78.01
2018-10-16T02:10:29.408Z,77.62
2018-10-16T02:11:29.541Z,78.10
2018-10-16T02:12:29.674Z,78.10
2018-10-16T02:13:29.808Z,78.01
2018-10-16T02:14:29.942Z,77.72
2018-10-16T02:15:30.074Z,77.95
2018-10-16T02:16:30.210Z,77.15
2018-10-16T02:17:30.346Z,77.38
2018-10-16T02:18:30.473Z,77.38
2018-10-16T02:19:30.609Z,77.09
2018-10-16T02:20:30.745Z,77.28
2018-10-16T02:21:30.878Z,77.19
2018-10-16T02:22:31.020Z,76.71
2018-10-16T02:23:31.151Z,76.52
2018-10-16T02:24:31.290Z,76.71
2018-10-16T02:25:31.420Z,76.71
2018-10-16T02:26:31.560Z,76.04
2018-10-16T02:27:31.712Z,76.33
2018-10-16T02:28:31.856Z,75.95
2018-10-16T02:29:31.988Z,76.14
2018-10-16T02:30:32.134Z,75.85
2018-10-16T02:31:32.271Z,75.28
2018-10-16T02:32:32.405Z,75.37
2018-10-16T02:33:32.573Z,75.57
2018-10-16T02:34:32.651Z,75.85
2018-10-16T02:35:33.392Z,75.89
2018-10-16T02:36:32.926Z,75.76
2018-10-16T02:37:33.067Z,75.57
2018-10-16T02:38:33.202Z,75.79
2018-10-16T02:39:33.339Z,75.42
2018-10-16T02:40:33.473Z,75.76
2018-10-16T02:41:33.609Z,76.27
2018-10-16T02:42:33.739Z,75.98
2018-10-16T02:43:33.873Z,75.89
2018-10-16T02:44:34.922Z,75.18
2018-10-16T02:47:06.428Z,75.51
2018-10-16T02:48:06.564Z,75.60
2018-10-16T02:49:06.702Z,75.28
2018-10-16T02:50:06.843Z,75.51
2018-10-16T02:51:06.969Z,75.60
2018-10-16T02:52:07.098Z,75.03
2018-10-16T02:53:07.233Z,75.60
2018-10-16T02:54:07.364Z,75.32
2018-10-16T02:55:07.501Z,75.51
2018-10-16T02:56:07.631Z,75.22
2018-10-16T02:57:07.790Z,75.28
2018-10-16T02:58:07.925Z,75.28
2018-10-16T02:59:08.069Z,75.28
2018-10-16T03:00:08.206Z,75.18
2018-10-16T03:01:08.339Z,75.47
2018-10-16T03:02:08.543Z,75.76
2018-10-16T03:03:08.554Z,75.85
2018-10-16T03:04:08.687Z,75.57
2018-10-16T03:05:08.845Z,75.95
2018-10-16T03:06:08.973Z,75.37
2018-10-16T03:07:09.109Z,75.18
2018-10-16T03:08:09.254Z,76.04
2018-10-16T03:09:09.382Z,75.85
2018-10-16T03:10:09.524Z,75.28
2018-10-16T03:11:09.658Z,75.43
2018-10-16T03:12:09.788Z,75.72
2018-10-16T03:13:09.927Z,75.34
2018-10-16T03:14:10.063Z,75.62
2018-10-16T03:15:10.200Z,75.62
2018-10-16T03:16:10.335Z,76.01
2018-10-16T03:17:10.465Z,76.29
2018-10-16T03:18:10.641Z,77.06
2018-10-16T03:19:10.796Z,76.57
2018-10-16T03:20:10.935Z,77.15
2018-10-16T03:21:11.060Z,77.15
2018-10-16T03:22:11.258Z,76.67
2018-10-16T03:23:11.364Z,76.67
2018-10-16T03:24:11.497Z,76.01
2018-10-16T03:25:11.665Z,76.42
2018-10-16T03:26:11.799Z,76.04
2018-10-16T03:27:11.937Z,75.47
2018-10-16T03:28:12.119Z,76.04
2018-10-16T03:29:12.248Z,75.66
2018-10-16T03:30:12.384Z,75.76
2018-10-16T03:31:12.555Z,75.95
2018-10-16T03:32:12.709Z,75.76
2018-10-16T03:33:12.851Z,75.66
2018-10-16T03:34:12.985Z,75.76
2018-10-16T03:35:13.140Z,75.57
2018-10-16T03:36:13.281Z,75.47
2018-10-16T03:37:13.416Z,75.37
2018-10-16T03:38:13.558Z,75.37
2018-10-16T03:39:13.693Z,75.28
2018-10-16T03:40:13.849Z,75.18
2018-10-16T03:41:13.980Z,74.99
2018-10-16T03:42:14.115Z,75.09
2018-10-16T03:43:14.760Z,74.99
2018-10-16T03:44:14.440Z,74.80
2018-10-16T03:45:14.572Z,75.18
2018-10-16T03:46:14.714Z,75.18
2018-10-16T03:47:14.878Z,74.90
2018-10-16T03:48:15.012Z,75.09
2018-10-16T03:49:15.147Z,75.18
2018-10-16T03:50:15.299Z,75.53
2018-10-16T03:51:15.432Z,75.91
2018-10-16T03:52:15.568Z,76.01
2018-10-16T03:53:15.727Z,75.53
2018-10-16T03:54:15.862Z,75.81
2018-10-16T03:55:16.003Z,76.39
2018-10-16T03:56:16.163Z,76.01
2018-10-16T03:57:16.428Z,75.81
2018-10-16T03:58:16.443Z,76.20
2018-10-16T03:59:16.591Z,76.29
2018-10-16T04:00:16.736Z,76.20
2018-10-16T04:01:17.760Z,75.91
2018-10-16T04:02:17.039Z,76.29
2018-10-16T04:03:17.199Z,75.43
2018-10-16T04:04:17.328Z,75.57
2018-10-16T04:05:17.484Z,75.81
2018-10-16T04:06:17.607Z,75.43
2018-10-16T04:07:17.744Z,75.47
2018-10-16T04:08:17.889Z,75.05
2018-10-16T04:09:18.020Z,74.96
2018-10-16T04:10:18.163Z,74.86
2018-10-16T04:11:18.399Z,75.05
2018-10-16T04:12:18.468Z,74.96
2018-10-16T04:13:18.604Z,74.96
2018-10-16T04:14:18.738Z,74.96
2018-10-16T04:15:18.889Z,75.24
2018-10-16T04:16:19.020Z,74.86
2018-10-16T04:17:19.160Z,74.96
2018-10-16T04:18:19.321Z,74.77
2018-10-16T04:19:19.450Z,74.42
2018-10-16T04:20:19.607Z,74.29
2018-10-16T04:21:19.744Z,74.67
2018-10-16T04:22:19.899Z,74.67
2018-10-16T04:23:20.018Z,74.67
2018-10-16T04:24:20.204Z,74.29
2018-10-16T04:25:20.290Z,74.29
2018-10-16T04:26:20.432Z,74.01
2018-10-16T04:27:20.622Z,74.01
2018-10-16T04:28:20.730Z,74.29
2018-10-16T04:29:20.909Z,74.01
2018-10-16T04:30:21.011Z,74.38
2018-10-16T04:31:21.167Z,74.86
2018-10-16T04:32:21.295Z,74.29
2018-10-16T04:33:21.434Z,74.96
2018-10-16T04:34:21.568Z,74.86
2018-10-16T04:35:21.719Z,75.05
2018-10-16T04:36:21.854Z,74.86
2018-10-16T04:37:21.988Z,74.86
2018-10-16T04:38:22.147Z,75.24
2018-10-16T04:39:22.266Z,75.05
2018-10-16T04:40:22.401Z,74.96
2018-10-16T04:41:22.606Z,75.05
2018-10-16T04:42:22.702Z,74.96
2018-10-16T04:43:22.835Z,74.96
2018-10-16T04:44:22.974Z,75.05
2018-10-16T04:45:23.115Z,75.05
2018-10-16T04:46:23.249Z,75.15
2018-10-16T04:47:23.387Z,74.96
2018-10-16T04:48:23.536Z,74.86
2018-10-16T04:49:23.664Z,74.96
2018-10-16T04:50:23.795Z,75.24
2018-10-16T04:51:23.968Z,75.62
2018-10-16T04:52:24.101Z,75.34
2018-10-16T04:53:24.237Z,75.43
2018-10-16T04:54:24.380Z,75.24
2018-10-16T04:55:24.533Z,75.43
2018-10-16T04:56:24.756Z,75.62
2018-10-16T04:57:24.769Z,75.72
2018-10-16T04:58:24.903Z,75.53
2018-10-16T04:59:25.057Z,75.43
2018-10-16T05:00:25.184Z,76.20
2018-10-16T05:01:25.335Z,75.34
2018-10-16T05:02:25.462Z,75.34
2018-10-16T05:03:25.641Z,75.34
2018-10-16T05:04:25.773Z,75.43
2018-10-16T05:05:25.904Z,75.62
2018-10-16T05:06:26.049Z,75.15
2018-10-16T05:07:26.204Z,75.53
2018-10-16T05:08:26.344Z,75.53
2018-10-16T05:09:26.474Z,75.47
2018-10-16T05:10:26.604Z,75.81
2018-10-16T05:11:26.771Z,75.62
2018-10-16T05:12:26.903Z,75.72
2018-10-16T05:13:27.037Z,75.15
2018-10-16T05:14:27.174Z,75.53
2018-10-16T05:15:27.311Z,75.53
2018-10-16T05:16:27.442Z,75.81
2018-10-16T05:17:27.570Z,75.43
2018-10-16T05:18:27.729Z,76.10
2018-10-16T05:19:27.858Z,75.43
2018-10-16T05:20:27.989Z,75.53
2018-10-16T05:21:28.124Z,75.53
2018-10-16T05:22:28.380Z,75.34
2018-10-16T05:23:28.408Z,75.81
2018-10-16T05:24:28.567Z,75.34
2018-10-16T05:25:28.676Z,75.15
2018-10-16T05:26:28.818Z,75.53
2018-10-16T05:27:28.962Z,75.62
2018-10-16T05:28:29.101Z,75.34
2018-10-16T05:29:29.235Z,75.43
2018-10-16T05:30:29.371Z,75.53
2018-10-16T05:31:29.723Z,75.43
2018-10-16T05:32:29.669Z,75.81
2018-10-16T05:33:29.797Z,75.62
2018-10-16T05:34:29.925Z,75.72
2018-10-16T05:35:30.094Z,75.43
2018-10-16T05:36:30.222Z,75.53
2018-10-16T05:37:30.356Z,75.53
2018-10-16T05:38:30.496Z,75.43
2018-10-16T05:39:30.629Z,75.24
2018-10-16T05:40:30.764Z,75.34
2018-10-16T05:41:30.895Z,75.34
2018-10-16T05:42:31.025Z,75.34
2018-10-16T05:43:31.169Z,75.15
2018-10-16T05:44:31.304Z,75.24
2018-10-16T05:45:31.437Z,75.34
2018-10-16T05:46:31.581Z,75.72
2018-10-16T05:47:31.733Z,75.81
2018-10-16T05:48:31.965Z,75.53
2018-10-16T05:49:31.974Z,75.15
2018-10-16T05:50:32.109Z,75.34
2018-10-16T05:51:32.250Z,75.53
2018-10-16T05:52:32.389Z,75.81
2018-10-16T05:53:32.518Z,75.34
2018-10-16T05:54:32.705Z,75.81
2018-10-16T05:55:32.823Z,75.91
2018-10-16T05:56:32.963Z,75.43
2018-10-16T05:57:33.749Z,75.53
2018-10-16T05:58:33.234Z,75.24
2018-10-16T05:59:33.367Z,76.20
2018-10-16T06:00:33.513Z,75.15
2018-10-16T06:01:33.652Z,75.81
2018-10-16T06:02:33.802Z,75.53
2018-10-16T06:03:33.934Z,75.53
2018-10-16T06:04:34.076Z,76.29
2018-10-16T06:05:34.263Z,76.20
2018-10-16T06:06:34.342Z,76.20
2018-10-16T06:07:34.528Z,76.01
2018-10-16T06:08:34.661Z,76.29
2018-10-16T06:09:34.802Z,76.67
2018-10-16T06:10:35.795Z,76.67
2018-10-16T06:11:35.044Z,77.15
2018-10-16T06:12:35.183Z,76.48
2018-10-16T06:13:35.323Z,76.67
2018-10-16T06:14:35.474Z,76.57
2018-10-16T06:15:35.591Z,76.67
2018-10-16T06:16:35.724Z,76.67
2018-10-16T06:17:35.856Z,76.48
2018-10-16T06:18:35.993Z,76.57
2018-10-16T06:19:36.135Z,76.48
2018-10-16T06:20:36.273Z,76.57
2018-10-16T06:21:36.406Z,76.96
2018-10-16T06:22:36.542Z,76.10
2018-10-16T06:23:36.676Z,76.01
2018-10-16T06:24:36.857Z,76.57
2018-10-16T06:25:36.942Z,77.06
2018-10-16T06:26:37.172Z,77.15
2018-10-16T06:27:37.235Z,77.15
2018-10-16T06:28:37.368Z,77.25
2018-10-16T06:29:37.503Z,76.96
2018-10-16T06:30:37.639Z,76.86
2018-10-16T06:31:37.774Z,76.77
2018-10-16T06:32:37.905Z,77.44
2018-10-16T06:33:38.061Z,77.25
2018-10-16T06:34:38.197Z,77.25
2018-10-16T06:35:38.332Z,77.06
2018-10-16T06:36:38.506Z,77.15
2018-10-16T06:37:38.629Z,77.06
2018-10-16T06:38:38.797Z,76.86
2018-10-16T06:39:38.957Z,76.96
2018-10-16T06:40:39.134Z,77.15
2018-10-16T06:41:39.305Z,77.25
2018-10-16T06:42:39.361Z,77.15
2018-10-16T06:43:39.499Z,77.06
2018-10-16T06:44:39.657Z,76.96
2018-10-16T06:45:39.788Z,77.38
2018-10-16T06:46:40.043Z,77.09
2018-10-16T06:47:40.145Z,77.09
2018-10-16T06:48:40.622Z,77.00
2018-10-16T06:49:40.348Z,76.71
2018-10-16T06:50:40.515Z,76.71
2018-10-16T06:51:40.670Z,76.71
2018-10-16T06:52:40.812Z,76.52
2018-10-16T06:53:40.943Z,77.00
2018-10-16T06:54:41.095Z,76.33
2018-10-16T06:55:41.209Z,76.42
2018-10-16T06:56:41.347Z,76.23
2018-10-16T06:57:41.477Z,75.85
2018-10-16T06:58:41.658Z,76.23
2018-10-16T06:59:41.755Z,75.95
2018-10-16T07:00:41.888Z,76.23
2018-10-16T07:01:42.047Z,77.00
2018-10-16T07:02:42.177Z,76.81
2018-10-16T07:03:42.354Z,76.71
2018-10-16T07:04:42.460Z,76.62
2018-10-16T07:05:42.601Z,76.62
2018-10-16T07:06:42.801Z,76.62
2018-10-16T07:07:42.869Z,77.38
2018-10-16T07:08:43.026Z,77.09
2018-10-16T07:09:43.160Z,77.19
2018-10-16T07:10:43.301Z,77.38
2018-10-16T07:11:43.438Z,77.19
2018-10-16T07:12:43.612Z,77.19
2018-10-16T07:13:43.731Z,77.09
2018-10-16T07:14:43.872Z,77.13
2018-10-16T07:15:44.056Z,77.19
2018-10-16T07:16:44.186Z,77.28
2018-10-16T07:17:44.320Z,77.19
2018-10-16T07:18:44.449Z,78.14
2018-10-16T07:19:44.615Z,77.76
2018-10-16T07:20:44.745Z,78.18
2018-10-16T07:21:44.954Z,77.99
2018-10-16T07:22:45.020Z,77.03
2018-10-16T07:23:45.176Z,77.23
2018-10-16T07:24:45.318Z,77.42
2018-10-16T07:25:45.439Z,77.23
2018-10-16T07:26:45.575Z,77.03
2018-10-16T07:27:45.706Z,77.51
2018-10-16T07:28:45.838Z,76.94
2018-10-16T07:29:45.975Z,77.42
2018-10-16T07:30:46.111Z,77.13
2018-10-16T07:31:46.283Z,78.09
2018-10-16T07:32:47.203Z,77.99
2018-10-16T07:33:46.606Z,77.13
2018-10-16T07:34:46.780Z,77.80
2018-10-16T07:35:46.902Z,77.70
2018-10-16T07:36:47.039Z,78.28
2018-10-16T07:37:47.250Z,78.47
2018-10-16T07:38:47.362Z,78.91
2018-10-16T07:39:47.475Z,78.91
2018-10-16T07:40:47.601Z,78.72
2018-10-16T07:41:47.760Z,79.77
2018-10-16T07:42:47.894Z,79.67
2018-10-16T07:43:48.055Z,79.00
2018-10-16T07:44:48.217Z,79.67
2018-10-16T07:45:48.355Z,79.48
2018-10-16T07:46:48.489Z,79.77
2018-10-16T07:47:48.626Z,79.77
2018-10-16T07:48:48.754Z,80.33
2018-10-16T07:49:48.883Z,80.43
2018-10-16T07:50:49.049Z,80.91
2018-10-16T07:51:49.224Z,80.91
2018-10-16T07:52:49.347Z,81.58
2018-10-16T07:53:49.491Z,81.20
2018-10-16T07:54:49.609Z,81.58
2018-10-16T07:55:49.750Z,81.67
2018-10-16T07:56:49.889Z,81.01
2018-10-16T07:57:50.049Z,80.72
2018-10-16T07:58:50.187Z,80.72
2018-10-16T07:59:50.352Z,80.85
2018-10-16T08:00:50.455Z,80.57
2018-10-16T08:01:50.606Z,80.76
2018-10-16T08:02:50.748Z,80.85
2018-10-16T08:03:50.869Z,80.95
2018-10-16T08:04:51.038Z,80.76
2018-10-16T08:05:51.170Z,80.66
2018-10-16T08:06:51.306Z,80.38
2018-10-16T08:07:51.538Z,80.38
2018-10-16T08:08:51.636Z,80.66
2018-10-16T08:09:51.792Z,79.99
2018-10-16T08:10:51.921Z,80.38
2018-10-16T08:11:52.097Z,80.09
2018-10-16T08:12:52.249Z,79.80
2018-10-16T08:13:52.385Z,80.19
2018-10-16T08:14:52.522Z,79.52
2018-10-16T08:15:52.664Z,80.09
2018-10-16T08:16:52.798Z,80.04
2018-10-16T08:17:52.930Z,79.75
2018-10-16T08:18:53.068Z,79.65
2018-10-16T08:19:53.202Z,79.56
2018-10-16T08:20:53.336Z,79.85
2018-10-16T08:21:53.474Z,79.27
2018-10-16T08:22:53.611Z,78.99
2018-10-16T08:23:53.833Z,79.08
2018-10-16T08:24:53.844Z,79.94
2018-10-16T08:25:53.980Z,79.75
2018-10-16T08:26:54.178Z,80.04
2018-10-16T08:27:54.270Z,79.46
2018-10-16T08:28:54.422Z,79.08
2018-10-16T08:29:54.592Z,79.65
2018-10-16T08:30:54.694Z,79.08
2018-10-16T08:31:54.857Z,80.04
2018-10-16T08:32:54.989Z,79.65
2018-10-16T08:33:55.134Z,79.69
2018-10-16T08:34:55.256Z,79.02
2018-10-16T08:35:55.458Z,79.02
2018-10-16T08:36:55.683Z,79.22
2018-10-16T08:37:55.623Z,79.75
2018-10-16T08:38:55.761Z,79.79
2018-10-16T08:39:55.903Z,79.08
2018-10-16T08:40:56.039Z,80.07
2018-10-16T08:41:56.251Z,80.17
2018-10-16T08:42:56.338Z,79.85
2018-10-16T08:43:56.480Z,80.22
2018-10-16T08:44:56.625Z,80.07
2018-10-16T08:45:56.766Z,79.79
2018-10-16T08:46:57.727Z,79.60
2018-10-16T08:47:57.027Z,79.02
2018-10-16T08:48:57.175Z,79.22
2018-10-16T08:49:57.304Z,78.83
2018-10-16T08:50:57.440Z,78.64
2018-10-16T08:51:57.588Z,78.55
2018-10-16T08:52:57.733Z,79.22
2018-10-16T08:53:57.866Z,79.12
2018-10-16T08:54:58.013Z,79.12
2018-10-16T08:55:58.140Z,79.22
2018-10-16T08:56:58.279Z,79.22
2018-10-16T08:57:58.427Z,79.64
2018-10-16T08:58:58.566Z,79.31
2018-10-16T08:59:58.733Z,79.83
2018-10-16T09:00:58.850Z,79.02
2018-10-16T09:01:58.987Z,79.64
2018-10-16T09:02:59.121Z,79.73
2018-10-16T09:03:59.256Z,80.11
2018-10-16T09:04:59.397Z,79.64
2018-10-16T09:05:59.525Z,79.16
2018-10-16T09:06:59.659Z,79.83
2018-10-16T09:07:59.790Z,79.93
2018-10-16T09:08:59.976Z,79.73
2018-10-16T09:10:00.104Z,79.16
2018-10-16T09:11:00.250Z,79.35
2018-10-16T09:12:00.385Z,78.97
2018-10-16T09:13:00.550Z,78.87
2018-10-16T09:14:00.696Z,79.06
2018-10-16T09:15:00.795Z,79.25
2018-10-16T09:16:00.953Z,79.16
2018-10-16T09:17:01.087Z,78.39
2018-10-16T09:18:01.225Z,78.68
2018-10-16T09:19:01.361Z,78.49
2018-10-16T09:20:01.501Z,79.25
2018-10-16T09:21:01.639Z,79.25
2018-10-16T09:22:01.775Z,78.87
2018-10-16T09:23:01.912Z,79.06
2018-10-16T09:24:02.043Z,78.78
2018-10-16T09:25:02.241Z,79.25
2018-10-16T09:26:02.349Z,79.64
2018-10-16T09:27:02.490Z,80.59
2018-10-16T09:28:02.653Z,80.79
2018-10-16T09:30:34.947Z,80.59
2018-10-16T09:31:35.088Z,80.40
2018-10-16T09:32:35.224Z,80.16
2018-10-16T09:33:35.357Z,79.96
2018-10-16T09:34:35.534Z,79.87
2018-10-16T09:35:35.653Z,79.96
2018-10-16T09:36:35.794Z,79.96
2018-10-16T09:37:35.974Z,79.44
2018-10-16T09:38:36.085Z,79.39
2018-10-16T09:39:36.227Z,80.25
2018-10-16T09:40:36.859Z,79.77
2018-10-16T09:43:08.895Z,79.39
2018-10-16T09:44:09.034Z,78.91
2018-10-16T09:45:09.167Z,78.81
2018-10-16T09:46:09.298Z,78.63
2018-10-16T09:47:09.487Z,78.47
2018-10-16T09:48:09.613Z,77.86
2018-10-16T09:49:09.751Z,78.14
2018-10-16T09:50:09.890Z,77.99
2018-10-16T09:51:10.029Z,78.28
2018-10-16T09:52:10.162Z,78.57
2018-10-16T09:53:10.304Z,78.28
2018-10-16T09:54:10.459Z,77.33
2018-10-16T09:55:10.592Z,77.80
2018-10-16T09:56:10.718Z,77.23
2018-10-16T09:57:10.851Z,77.13
2018-10-16T09:58:11.037Z,76.56
2018-10-16T09:59:11.165Z,75.73
2018-10-16T10:00:11.305Z,76.37
2018-10-16T10:01:11.449Z,76.65
2018-10-16T10:02:11.605Z,77.51
2018-10-16T10:03:11.734Z,77.36
2018-10-16T10:04:11.866Z,77.36
2018-10-16T10:05:12.015Z,77.13
2018-10-16T10:06:12.150Z,77.55
2018-10-16T10:07:12.342Z,77.17
2018-10-16T10:08:12.485Z,77.36
2018-10-16T10:09:12.658Z,76.89
2018-10-16T10:10:12.792Z,76.46
2018-10-16T10:11:13.027Z,76.79
2018-10-16T10:12:13.070Z,76.02
2018-10-16T10:13:13.257Z,75.83
2018-10-16T10:14:13.384Z,75.45
2018-10-16T10:15:13.530Z,76.12
2018-10-16T10:16:13.661Z,76.12
2018-10-16T10:17:13.795Z,76.40
2018-10-16T10:18:13.956Z,76.02
2018-10-16T10:19:14.076Z,76.50
2018-10-16T10:20:14.212Z,77.17
2018-10-16T10:21:14.353Z,76.79
2018-10-16T10:22:14.555Z,77.26
2018-10-16T10:23:14.582Z,77.36
2018-10-16T10:24:14.720Z,77.26
2018-10-16T10:25:14.920Z,77.55
2018-10-16T10:26:15.003Z,77.31
2018-10-16T10:27:15.142Z,77.36
2018-10-16T10:28:15.290Z,76.92
2018-10-16T10:29:15.433Z,76.92
2018-10-16T10:30:15.573Z,76.15
2018-10-16T10:31:15.709Z,77.02
2018-10-16T10:32:15.845Z,76.82
2018-10-16T10:33:15.986Z,77.02
2018-10-16T10:34:16.147Z,77.02
2018-10-16T10:35:16.308Z,76.44
2018-10-16T10:36:16.431Z,76.54
2018-10-16T10:37:16.575Z,76.15
2018-10-16T10:38:16.739Z,75.68
2018-10-16T10:39:16.875Z,76.35
2018-10-16T10:40:17.007Z,75.68
2018-10-16T10:41:17.147Z,76.06
2018-10-16T10:42:17.409Z,75.87
2018-10-16T10:43:17.541Z,76.15
2018-10-16T10:44:17.558Z,76.06
2018-10-16T10:45:17.693Z,75.87
2018-10-16T10:46:17.848Z,77.21
2018-10-16T10:47:17.984Z,77.40
2018-10-16T10:48:18.122Z,76.82
2018-10-16T10:49:18.260Z,76.82
2018-10-16T10:50:18.555Z,77.15
2018-10-16T10:51:18.864Z,76.57
2018-10-16T10:52:18.701Z,77.06
2018-10-16T10:53:18.834Z,77.25
2018-10-16T10:54:19.002Z,76.19
2018-10-16T10:55:19.136Z,75.52
2018-10-16T10:56:19.273Z,75.33
2018-10-16T10:57:19.499Z,75.62
2018-10-16T10:58:19.590Z,75.90
2018-10-16T10:59:19.802Z,75.90
2018-10-16T11:00:19.819Z,76.00
2018-10-16T11:01:19.960Z,76.04
2018-10-16T11:02:20.145Z,76.23
2018-10-16T11:03:20.335Z,76.42
2018-10-16T11:04:20.399Z,75.65
2018-10-16T11:05:20.541Z,76.04
2018-10-16T11:06:20.745Z,75.95
2018-10-16T11:07:20.761Z,76.32
2018-10-16T11:08:20.893Z,75.85
2018-10-16T11:09:21.047Z,75.60
2018-10-16T11:10:21.217Z,75.50
2018-10-16T11:11:21.359Z,74.83
2018-10-16T11:12:21.512Z,75.31
2018-10-16T11:13:21.648Z,74.54
2018-10-16T11:14:21.816Z,74.83
2018-10-16T11:15:21.949Z,74.93
2018-10-16T11:16:22.088Z,75.31
2018-10-16T11:17:22.231Z,74.35
2018-10-16T11:18:22.367Z,74.26
2018-10-16T11:19:22.556Z,74.64
2018-10-16T11:20:22.648Z,74.44
2018-10-16T11:21:22.785Z,73.58
2018-10-16T11:22:22.943Z,73.49
2018-10-16T11:23:23.091Z,73.72
2018-10-16T11:24:23.223Z,73.52
2018-10-16T11:25:23.361Z,73.33
2018-10-16T11:26:23.511Z,73.62
2018-10-16T11:27:23.694Z,73.81
2018-10-16T11:28:23.836Z,73.43
2018-10-16T11:29:23.980Z,73.72
2018-10-16T11:30:24.211Z,73.62
2018-10-16T11:31:24.275Z,73.81
2018-10-16T11:32:24.415Z,73.62
2018-10-16T11:33:24.551Z,73.62
2018-10-16T11:34:24.694Z,73.81
2018-10-16T11:35:24.871Z,73.85
2018-10-16T11:36:25.008Z,74.39
2018-10-16T11:37:25.149Z,74.96
2018-10-16T11:38:25.330Z,74.39
2018-10-16T11:39:25.449Z,74.48
2018-10-16T11:40:25.588Z,74.33
2018-10-16T11:41:25.728Z,74.23
2018-10-16T11:42:25.894Z,73.66
2018-10-16T11:43:26.033Z,73.66
2018-10-16T11:44:26.172Z,73.37
2018-10-16T11:45:26.313Z,72.60
2018-10-16T11:46:26.475Z,72.79
2018-10-16T11:47:26.608Z,73.46
2018-10-16T11:48:26.755Z,73.75
2018-10-16T11:49:26.880Z,73.66
2018-10-16T11:50:27.061Z,73.66
2018-10-16T11:51:27.179Z,73.18
2018-10-16T11:52:27.321Z,73.37
2018-10-16T11:53:27.458Z,73.75
2018-10-16T11:54:27.606Z,73.66
2018-10-16T11:55:27.751Z,73.46
2018-10-16T11:56:27.952Z,73.37
2018-10-16T11:57:28.036Z,73.85
2018-10-16T11:58:28.176Z,73.85
2018-10-16T11:59:28.316Z,74.04
2018-10-16T12:00:28.473Z,74.33
2018-10-16T12:01:28.611Z,74.52
2018-10-16T12:02:28.806Z,74.33
2018-10-16T12:03:28.915Z,75.10
2018-10-16T12:04:29.046Z,75.20
2018-10-16T12:05:29.198Z,75.10
2018-10-16T12:06:29.350Z,75.67
2018-10-16T12:07:29.501Z,75.38
2018-10-16T12:08:29.647Z,75.48
2018-10-16T12:09:29.790Z,74.81
2018-10-16T12:10:29.961Z,74.62
2018-10-16T12:11:30.090Z,74.62
2018-10-16T12:12:30.229Z,74.62
2018-10-16T12:13:30.376Z,74.90
2018-10-16T12:14:30.516Z,74.81
2018-10-16T12:15:30.686Z,74.37
2018-10-16T12:16:30.821Z,73.66
2018-10-16T12:17:30.962Z,73.75
2018-10-16T12:18:31.132Z,73.37
2018-10-16T12:19:31.330Z,73.66
2018-10-16T12:20:31.411Z,73.94
2018-10-16T12:21:31.544Z,73.56
2018-10-16T12:22:31.705Z,73.85
2018-10-16T12:23:31.900Z,73.88
2018-10-16T12:24:31.989Z,73.41
2018-10-16T12:25:32.121Z,73.69
2018-10-16T12:26:32.273Z,73.88
2018-10-16T12:27:32.410Z,73.98
2018-10-16T12:28:32.550Z,74.55
2018-10-16T12:29:32.688Z,74.46
2018-10-16T12:30:32.849Z,74.55
2018-10-16T12:31:32.981Z,74.17
2018-10-16T12:32:33.125Z,73.88
2018-10-16T12:33:33.290Z,73.69
2018-10-16T12:34:33.426Z,73.73
2018-10-16T12:35:33.579Z,73.25
2018-10-16T12:36:33.715Z,73.06
2018-10-16T12:37:33.892Z,73.92
2018-10-16T12:38:34.091Z,73.54
2018-10-16T12:39:34.223Z,73.06
2018-10-16T12:40:34.339Z,73.63
2018-10-16T12:41:34.473Z,73.83
2018-10-16T12:42:34.645Z,73.73
2018-10-16T12:43:35.177Z,73.44
2018-10-16T12:44:34.887Z,74.27
2018-10-16T12:45:35.020Z,74.55
2018-10-16T12:46:35.175Z,74.46
2018-10-16T12:47:35.303Z,74.37
2018-10-16T12:48:35.449Z,74.65
2018-10-16T12:49:35.598Z,74.75
2018-10-16T12:50:35.745Z,74.65
2018-10-16T12:51:35.889Z,74.65
2018-10-16T12:52:36.021Z,74.75
2018-10-16T12:53:36.162Z,74.55
2018-10-16T12:54:36.298Z,74.94
2018-10-16T12:55:36.438Z,74.46
2018-10-16T12:56:36.643Z,74.65
2018-10-16T12:57:36.721Z,74.55
2018-10-16T12:58:36.859Z,74.75